sensor_id;sensor_type;location;lat;lon;timestamp;pressure;altitude;pressure_sealevel;temperature;humidity
21728;BME280;11026;50.560;17.852;2022-11-15T00:00:34;99810.16;;;3.81;100.00
21728;BME280;11026;50.560;17.852;2022-11-15T00:03:02;99808.38;;;3.83;100.00
21728;BME280;11026;50.560;17.852;2022-11-15T00:05:29;99797.00;;;3.87;100.00
21728;BME280;11026;50.560;17.852;2022-11-15T00:07:57;99792.81;;;3.74;100.00
21728;BME280;11026;50.560;17.852;2022-11-15T00:10:24;99798.88;;;3.76;100.00
21728;BME280;11026;50.560;17.852;2022-11-15T00:12:52;99787.53;;;3.77;100.00
21728;BME280;11026;50.560;17.852;2022-11-15T00:15:24;99788.38;;;3.80;100.00
21728;BME280;11026;50.560;17.852;2022-11-15T00:17:54;99789.25;;;3.81;100.00
21728;BME280;11026;50.560;17.852;2022-11-15T00:20:23;99787.47;;;3.80;100.00
21728;BME280;11026;50.560;17.852;2022-11-15T00:22:51;99795.31;;;3.83;100.00
21728;BME280;11026;50.560;17.852;2022-11-15T00:25:20;99787.56;;;3.74;100.00
21728;BME280;11026;50.560;17.852;2022-11-15T00:27:59;99777.09;;;3.72;100.00
21728;BME280;11026;50.560;17.852;2022-11-15T00:33:16;99775.47;;;3.65;100.00
21728;BME280;11026;50.560;17.852;2022-11-15T00:35:44;99780.78;;;3.60;100.00
21728;BME280;11026;50.560;17.852;2022-11-15T00:38:39;99775.47;;;3.65;100.00
21728;BME280;11026;50.560;17.852;2022-11-15T00:41:08;99779.00;;;3.59;100.00
21728;BME280;11026;50.560;17.852;2022-11-15T00:43:37;99768.53;;;3.62;100.00
21728;BME280;11026;50.560;17.852;2022-11-15T00:46:13;99775.47;;;3.63;100.00
21728;BME280;11026;50.560;17.852;2022-11-15T00:48:40;99758.00;;;3.68;100.00
21728;BME280;11026;50.560;17.852;2022-11-15T00:51:07;99756.25;;;3.67;100.00
21728;BME280;11026;50.560;17.852;2022-11-15T00:53:48;99759.66;;;3.74;100.00
21728;BME280;11026;50.560;17.852;2022-11-15T00:56:18;99753.59;;;3.70;100.00
21728;BME280;11026;50.560;17.852;2022-11-15T00:58:45;99752.84;;;3.61;100.00
21728;BME280;11026;50.560;17.852;2022-11-15T01:01:14;99749.28;;;3.66;100.00
21728;BME280;11026;50.560;17.852;2022-11-15T01:03:49;99753.53;;;3.77;100.00
21728;BME280;11026;50.560;17.852;2022-11-15T01:06:23;99749.16;;;3.76;100.00
21728;BME280;11026;50.560;17.852;2022-11-15T01:09:18;99742.22;;;3.72;100.00
21728;BME280;11026;50.560;17.852;2022-11-15T01:11:46;99736.22;;;3.65;100.00
21728;BME280;11026;50.560;17.852;2022-11-15T01:14:15;99743.09;;;3.74;100.00
21728;BME280;11026;50.560;17.852;2022-11-15T01:17:14;99727.50;;;3.66;100.00
21728;BME280;11026;50.560;17.852;2022-11-15T01:19:42;99738.00;;;3.60;100.00
21728;BME280;11026;50.560;17.852;2022-11-15T01:22:09;99739.00;;;3.51;100.00
21728;BME280;11026;50.560;17.852;2022-11-15T01:24:42;99733.81;;;3.48;100.00
21728;BME280;11026;50.560;17.852;2022-11-15T01:27:11;99732.06;;;3.47;100.00
21728;BME280;11026;50.560;17.852;2022-11-15T01:29:38;99732.06;;;3.47;100.00
21728;BME280;11026;50.560;17.852;2022-11-15T01:32:08;99719.78;;;3.57;100.00
21728;BME280;11026;50.560;17.852;2022-11-15T01:34:37;99716.19;;;3.62;100.00
21728;BME280;11026;50.560;17.852;2022-11-15T01:37:04;99707.56;;;3.57;100.00
21728;BME280;11026;50.560;17.852;2022-11-15T01:39:38;99711.03;;;3.56;100.00
21728;BME280;11026;50.560;17.852;2022-11-15T01:42:14;99712.78;;;3.57;100.00
21728;BME280;11026;50.560;17.852;2022-11-15T01:45:00;99713.72;;;3.52;100.00
21728;BME280;11026;50.560;17.852;2022-11-15T01:47:51;99704.19;;;3.46;100.00
21728;BME280;11026;50.560;17.852;2022-11-15T01:50:24;99700.72;;;3.44;100.00
21728;BME280;11026;50.560;17.852;2022-11-15T01:52:54;99695.56;;;3.41;100.00
21728;BME280;11026;50.560;17.852;2022-11-15T01:55:25;99693.94;;;3.31;100.00
21728;BME280;11026;50.560;17.852;2022-11-15T01:57:58;99699.13;;;3.34;100.00
21728;BME280;11026;50.560;17.852;2022-11-15T02:00:28;99692.09;;;3.36;100.00
21728;BME280;11026;50.560;17.852;2022-11-15T02:03:06;99667.72;;;3.35;100.00
21728;BME280;11026;50.560;17.852;2022-11-15T02:05:36;99666.78;;;3.39;100.00
21728;BME280;11026;50.560;17.852;2022-11-15T02:08:13;99671.25;;;3.33;100.00
21728;BME280;11026;50.560;17.852;2022-11-15T02:10:48;99660.75;;;3.34;100.00
21728;BME280;11026;50.560;17.852;2022-11-15T02:13:33;99660.81;;;3.30;100.00
21728;BME280;11026;50.560;17.852;2022-11-15T02:18:41;99630.34;;;3.29;100.00
21728;BME280;11026;50.560;17.852;2022-11-15T02:21:15;99615.63;;;3.22;100.00
21728;BME280;11026;50.560;17.852;2022-11-15T02:34:51;99641.25;;;3.58;100.00
21728;BME280;11026;50.560;17.852;2022-11-15T02:43:37;99622.91;;;3.61;100.00
21728;BME280;11026;50.560;17.852;2022-11-15T02:46:31;99632.69;;;3.47;100.00
21728;BME280;11026;50.560;17.852;2022-11-15T02:49:18;99646.50;;;3.58;100.00
21728;BME280;11026;50.560;17.852;2022-11-15T02:51:55;99641.19;;;3.64;100.00
21728;BME280;11026;50.560;17.852;2022-11-15T02:54:31;99625.25;;;3.80;100.00
21728;BME280;11026;50.560;17.852;2022-11-15T02:57:13;99631.34;;;3.82;100.00
21728;BME280;11026;50.560;17.852;2022-11-15T03:00:22;99626.94;;;3.84;100.00
21728;BME280;11026;50.560;17.852;2022-11-15T03:03:43;99625.31;;;3.77;100.00
21728;BME280;11026;50.560;17.852;2022-11-15T03:06:27;99630.47;;;3.80;100.00
21728;BME280;11026;50.560;17.852;2022-11-15T03:11:22;99620.00;;;3.80;100.00
21728;BME280;11026;50.560;17.852;2022-11-15T03:14:42;99620.94;;;3.77;100.00
21728;BME280;11026;50.560;17.852;2022-11-15T03:17:23;99610.06;;;4.03;100.00
21728;BME280;11026;50.560;17.852;2022-11-15T03:19:59;99609.19;;;4.04;100.00
21728;BME280;11026;50.560;17.852;2022-11-15T03:22:30;99599.63;;;4.02;100.00
21728;BME280;11026;50.560;17.852;2022-11-15T03:25:19;99611.94;;;3.95;100.00
21728;BME280;11026;50.560;17.852;2022-11-15T03:27:55;99598.81;;;3.98;100.00
21728;BME280;11026;50.560;17.852;2022-11-15T03:30:36;99587.50;;;3.94;100.00
21728;BME280;11026;50.560;17.852;2022-11-15T03:33:13;99584.84;;;3.98;100.00
21728;BME280;11026;50.560;17.852;2022-11-15T03:35:43;99586.56;;;4.00;100.00
21728;BME280;11026;50.560;17.852;2022-11-15T03:38:25;99583.91;;;4.02;100.00
21728;BME280;11026;50.560;17.852;2022-11-15T03:41:04;99570.78;;;4.03;100.00
21728;BME280;11026;50.560;17.852;2022-11-15T03:44:04;99573.44;;;4.02;100.00
21728;BME280;11026;50.560;17.852;2022-11-15T03:51:23;99582.94;;;4.07;100.00
21728;BME280;11026;50.560;17.852;2022-11-15T03:54:03;99574.22;;;4.08;100.00
21728;BME280;11026;50.560;17.852;2022-11-15T03:56:37;99572.09;;;4.29;100.00
21728;BME280;11026;50.560;17.852;2022-11-15T03:59:04;99572.06;;;4.32;100.00
21728;BME280;11026;50.560;17.852;2022-11-15T04:01:38;99568.50;;;4.36;100.00
21728;BME280;11026;50.560;17.852;2022-11-15T04:04:08;99576.34;;;4.34;100.00
21728;BME280;11026;50.560;17.852;2022-11-15T04:06:46;99574.69;;;4.32;100.00
21728;BME280;11026;50.560;17.852;2022-11-15T04:09:15;99576.41;;;4.31;100.00
21728;BME280;11026;50.560;17.852;2022-11-15T04:11:49;99571.03;;;4.40;100.00
21728;BME280;11026;50.560;17.852;2022-11-15T04:14:24;99578.97;;;4.36;100.00
21728;BME280;11026;50.560;17.852;2022-11-15T04:16:55;99579.78;;;4.38;100.00
21728;BME280;11026;50.560;17.852;2022-11-15T04:19:22;99574.63;;;4.33;100.00
21728;BME280;11026;50.560;17.852;2022-11-15T04:22:16;99572.78;;;4.38;100.00
21728;BME280;11026;50.560;17.852;2022-11-15T04:25:02;99563.44;;;4.24;100.00
21728;BME280;11026;50.560;17.852;2022-11-15T04:27:29;99561.63;;;4.29;100.00
21728;BME280;11026;50.560;17.852;2022-11-15T04:30:09;99556.44;;;4.26;100.00
21728;BME280;11026;50.560;17.852;2022-11-15T04:32:36;99553.72;;;4.30;100.00
21728;BME280;11026;50.560;17.852;2022-11-15T04:35:06;99558.22;;;4.24;100.00
21728;BME280;11026;50.560;17.852;2022-11-15T04:37:41;99558.28;;;4.21;100.00
21728;BME280;11026;50.560;17.852;2022-11-15T04:40:20;99554.72;;;4.25;100.00
21728;BME280;11026;50.560;17.852;2022-11-15T04:42:56;99553.88;;;4.23;100.00
21728;BME280;11026;50.560;17.852;2022-11-15T04:45:54;99544.28;;;4.22;100.00
21728;BME280;11026;50.560;17.852;2022-11-15T04:48:29;99541.53;;;4.29;100.00
21728;BME280;11026;50.560;17.852;2022-11-15T04:50:57;99538.03;;;4.30;100.00
21728;BME280;11026;50.560;17.852;2022-11-15T04:56:18;99541.78;;;4.15;100.00
21728;BME280;11026;50.560;17.852;2022-11-15T04:58:50;99523.25;;;4.28;100.00
21728;BME280;11026;50.560;17.852;2022-11-15T05:01:17;99527.63;;;4.26;100.00
21728;BME280;11026;50.560;17.852;2022-11-15T05:03:51;99528.41;;;4.31;100.00
21728;BME280;11026;50.560;17.852;2022-11-15T05:06:38;99524.06;;;4.30;100.00
21728;BME280;11026;50.560;17.852;2022-11-15T05:09:07;99519.78;;;4.26;100.00
21728;BME280;11026;50.560;17.852;2022-11-15T05:11:34;99514.53;;;4.26;100.00
21728;BME280;11026;50.560;17.852;2022-11-15T05:14:09;99521.53;;;4.25;100.00
21728;BME280;11026;50.560;17.852;2022-11-15T05:16:36;99531.19;;;4.22;100.00
21728;BME280;11026;50.560;17.852;2022-11-15T05:19:05;99523.16;;;4.31;100.00
21728;BME280;11026;50.560;17.852;2022-11-15T05:21:44;99522.44;;;4.24;100.00
21728;BME280;11026;50.560;17.852;2022-11-15T05:24:14;99529.41;;;4.24;100.00
21728;BME280;11026;50.560;17.852;2022-11-15T05:26:41;99526.97;;;4.14;100.00
21728;BME280;11026;50.560;17.852;2022-11-15T05:29:09;99521.84;;;4.08;100.00
21728;BME280;11026;50.560;17.852;2022-11-15T05:31:39;99515.75;;;4.06;100.00
21728;BME280;11026;50.560;17.852;2022-11-15T05:34:08;99526.44;;;3.94;100.00
21728;BME280;11026;50.560;17.852;2022-11-15T05:36:41;99533.19;;;4.09;100.00
21728;BME280;11026;50.560;17.852;2022-11-15T05:39:10;99517.25;;;4.19;100.00
21728;BME280;11026;50.560;17.852;2022-11-15T05:41:43;99512.69;;;4.32;100.00
21728;BME280;11026;50.560;17.852;2022-11-15T05:44:13;99517.13;;;4.29;100.00
21728;BME280;11026;50.560;17.852;2022-11-15T05:46:43;99511.31;;;4.11;100.00
21728;BME280;11026;50.560;17.852;2022-11-15T05:49:12;99514.72;;;4.16;100.00
21728;BME280;11026;50.560;17.852;2022-11-15T05:51:44;99513.91;;;4.11;100.00
21728;BME280;11026;50.560;17.852;2022-11-15T05:54:21;99511.59;;;3.94;100.00
21728;BME280;11026;50.560;17.852;2022-11-15T05:56:53;99513.59;;;3.82;100.00
21728;BME280;11026;50.560;17.852;2022-11-15T05:59:24;99513.41;;;3.91;100.00
21728;BME280;11026;50.560;17.852;2022-11-15T06:01:55;99513.50;;;3.86;100.00
21728;BME280;11026;50.560;17.852;2022-11-15T06:04:32;99511.13;;;3.71;100.00
21728;BME280;11026;50.560;17.852;2022-11-15T06:06:59;99512.94;;;3.67;100.00
21728;BME280;11026;50.560;17.852;2022-11-15T06:09:28;99512.72;;;3.80;100.00
21728;BME280;11026;50.560;17.852;2022-11-15T06:12:02;99504.03;;;3.79;100.00
21728;BME280;11026;50.560;17.852;2022-11-15T06:14:29;99511.69;;;3.90;100.00
21728;BME280;11026;50.560;17.852;2022-11-15T06:16:58;99516.94;;;3.90;100.00
21728;BME280;11026;50.560;17.852;2022-11-15T06:19:25;99507.88;;;4.09;100.00
21728;BME280;11026;50.560;17.852;2022-11-15T06:21:52;99505.16;;;4.14;100.00
21728;BME280;11026;50.560;17.852;2022-11-15T06:24:29;99508.34;;;4.30;100.00
21728;BME280;11026;50.560;17.852;2022-11-15T06:26:56;99520.69;;;4.25;100.00
21728;BME280;11026;50.560;17.852;2022-11-15T06:29:43;99523.63;;;4.06;100.00
21728;BME280;11026;50.560;17.852;2022-11-15T06:32:10;99518.19;;;4.17;100.00
21728;BME280;11026;50.560;17.852;2022-11-15T06:34:39;99515.72;;;4.09;100.00
21728;BME280;11026;50.560;17.852;2022-11-15T06:37:06;99521.72;;;4.14;100.00
21728;BME280;11026;50.560;17.852;2022-11-15T06:39:34;99515.44;;;4.25;100.00
21728;BME280;11026;50.560;17.852;2022-11-15T06:42:01;99510.56;;;4.51;100.00
21728;BME280;11026;50.560;17.852;2022-11-15T06:44:38;99510.63;;;4.48;100.00
21728;BME280;11026;50.560;17.852;2022-11-15T06:47:05;99509.03;;;4.41;100.00
21728;BME280;11026;50.560;17.852;2022-11-15T06:49:32;99511.63;;;4.41;100.00
21728;BME280;11026;50.560;17.852;2022-11-15T06:52:02;99503.59;;;4.50;100.00
21728;BME280;11026;50.560;17.852;2022-11-15T06:54:37;99502.78;;;4.47;100.00
21728;BME280;11026;50.560;17.852;2022-11-15T06:57:12;99510.06;;;4.76;100.00
21728;BME280;11026;50.560;17.852;2022-11-15T06:59:41;99502.59;;;4.99;100.00
21728;BME280;11026;50.560;17.852;2022-11-15T07:05:11;99501.19;;;5.22;100.00
21728;BME280;11026;50.560;17.852;2022-11-15T07:08:00;99501.06;;;5.28;100.00
21728;BME280;11026;50.560;17.852;2022-11-15T07:10:29;99504.28;;;5.40;100.00
21728;BME280;11026;50.560;17.852;2022-11-15T07:13:09;99504.09;;;5.48;100.00
21728;BME280;11026;50.560;17.852;2022-11-15T07:15:37;99507.63;;;5.47;100.00
21728;BME280;11026;50.560;17.852;2022-11-15T07:18:14;99501.31;;;5.54;100.00
21728;BME280;11026;50.560;17.852;2022-11-15T07:20:46;99495.72;;;5.68;100.00
21728;BME280;11026;50.560;17.852;2022-11-15T07:23:13;99488.06;;;5.96;100.00
21728;BME280;11026;50.560;17.852;2022-11-15T07:25:41;99483.19;;;6.15;100.00
21728;BME280;11026;50.560;17.852;2022-11-15T07:28:19;99490.28;;;6.11;100.00
21728;BME280;11026;50.560;17.852;2022-11-15T07:30:48;99487.41;;;6.21;100.00
21728;BME280;11026;50.560;17.852;2022-11-15T07:33:23;99488.22;;;6.23;100.00
21728;BME280;11026;50.560;17.852;2022-11-15T07:35:57;99497.03;;;6.22;100.00
21728;BME280;11026;50.560;17.852;2022-11-15T07:38:26;99499.22;;;6.37;100.00
21728;BME280;11026;50.560;17.852;2022-11-15T07:41:03;99490.06;;;6.52;100.00
21728;BME280;11026;50.560;17.852;2022-11-15T07:43:31;99495.19;;;6.56;100.00
21728;BME280;11026;50.560;17.852;2022-11-15T07:49:07;99488.22;;;6.85;100.00
21728;BME280;11026;50.560;17.852;2022-11-15T07:51:37;99495.19;;;7.15;100.00
21728;BME280;11026;50.560;17.852;2022-11-15T07:54:08;99496.25;;;7.38;100.00
21728;BME280;11026;50.560;17.852;2022-11-15T07:56:35;99500.81;;;7.33;100.00
21728;BME280;11026;50.560;17.852;2022-11-15T07:59:04;99495.94;;;7.47;99.77
21728;BME280;11026;50.560;17.852;2022-11-15T08:01:31;99494.53;;;7.63;99.08
21728;BME280;11026;50.560;17.852;2022-11-15T08:04:05;99494.25;;;7.73;97.72
21728;BME280;11026;50.560;17.852;2022-11-15T08:06:43;99495.75;;;7.80;97.19
21728;BME280;11026;50.560;17.852;2022-11-15T08:09:18;99491.81;;;7.93;97.13
21728;BME280;11026;50.560;17.852;2022-11-15T08:11:45;99488.97;;;7.99;96.80
21728;BME280;11026;50.560;17.852;2022-11-15T08:14:14;99487.81;;;8.08;96.28
21728;BME280;11026;50.560;17.852;2022-11-15T08:16:44;99485.16;;;8.33;95.82
21728;BME280;11026;50.560;17.852;2022-11-15T08:19:11;99480.06;;;8.53;93.71
21728;BME280;11026;50.560;17.852;2022-11-15T08:21:38;99488.44;;;8.65;91.70
21728;BME280;11026;50.560;17.852;2022-11-15T08:24:05;99488.19;;;8.71;91.33
21728;BME280;11026;50.560;17.852;2022-11-15T08:26:32;99497.03;;;8.93;91.13
21728;BME280;11026;50.560;17.852;2022-11-15T08:29:01;99493.81;;;9.08;91.24
21728;BME280;11026;50.560;17.852;2022-11-15T08:31:28;99484.94;;;9.33;90.72
21728;BME280;11026;50.560;17.852;2022-11-15T08:33:56;99503.41;;;9.77;90.11
21728;BME280;11026;50.560;17.852;2022-11-15T08:36:26;99493.72;;;10.79;89.06
21728;BME280;11026;50.560;17.852;2022-11-15T08:39:02;99498.69;;;12.15;81.70
21728;BME280;11026;50.560;17.852;2022-11-15T08:41:36;99489.63;;;13.02;71.71
21728;BME280;11026;50.560;17.852;2022-11-15T08:44:14;99492.63;;;14.21;67.29
21728;BME280;11026;50.560;17.852;2022-11-15T08:46:42;99495.28;;;14.80;64.16
21728;BME280;11026;50.560;17.852;2022-11-15T08:49:11;99495.84;;;15.14;63.23
21728;BME280;11026;50.560;17.852;2022-11-15T08:51:40;99494.00;;;15.84;60.36
21728;BME280;11026;50.560;17.852;2022-11-15T08:54:07;99491.22;;;16.38;58.10
21728;BME280;11026;50.560;17.852;2022-11-15T08:56:58;99495.59;;;15.45;60.62
21728;BME280;11026;50.560;17.852;2022-11-15T08:59:25;99498.88;;;16.83;60.36
21728;BME280;11026;50.560;17.852;2022-11-15T09:01:52;99496.38;;;18.03;55.58
21728;BME280;11026;50.560;17.852;2022-11-15T09:04:20;99494.66;;;18.95;52.70
21728;BME280;11026;50.560;17.852;2022-11-15T09:06:47;99479.97;;;19.55;50.59
21728;BME280;11026;50.560;17.852;2022-11-15T09:09:14;99479.63;;;20.45;49.16
21728;BME280;11026;50.560;17.852;2022-11-15T09:11:41;99471.59;;;21.06;47.32
21728;BME280;11026;50.560;17.852;2022-11-15T09:14:11;99471.91;;;21.53;46.26
21728;BME280;11026;50.560;17.852;2022-11-15T09:16:38;99477.22;;;22.03;44.82
21728;BME280;11026;50.560;17.852;2022-11-15T09:19:06;99471.84;;;22.42;43.61
21728;BME280;11026;50.560;17.852;2022-11-15T09:21:38;99482.03;;;23.04;43.33
21728;BME280;11026;50.560;17.852;2022-11-15T09:24:05;99480.59;;;23.38;42.65
21728;BME280;11026;50.560;17.852;2022-11-15T09:26:32;99476.63;;;23.32;41.35
21728;BME280;11026;50.560;17.852;2022-11-15T09:29:02;99477.59;;;23.41;40.75
21728;BME280;11026;50.560;17.852;2022-11-15T09:31:30;99472.19;;;23.68;41.21
21728;BME280;11026;50.560;17.852;2022-11-15T09:33:57;99466.16;;;24.10;39.95
21728;BME280;11026;50.560;17.852;2022-11-15T09:36:24;99467.38;;;24.34;40.16
21728;BME280;11026;50.560;17.852;2022-11-15T09:38:51;99465.47;;;24.44;39.67
21728;BME280;11026;50.560;17.852;2022-11-15T09:49:30;99445.09;;;24.84;38.42
21728;BME280;11026;50.560;17.852;2022-11-15T09:52:00;99445.53;;;23.00;40.62
21728;BME280;11026;50.560;17.852;2022-11-15T09:54:37;99437.28;;;23.57;41.08
21728;BME280;11026;50.560;17.852;2022-11-15T10:03:09;99431.03;;;24.80;39.73
21728;BME280;11026;50.560;17.852;2022-11-15T10:05:48;99417.09;;;25.01;39.06
21728;BME280;11026;50.560;17.852;2022-11-15T10:08:40;99417.31;;;24.73;39.37
21728;BME280;11026;50.560;17.852;2022-11-15T10:11:25;99424.59;;;25.07;39.04
21728;BME280;11026;50.560;17.852;2022-11-15T10:14:19;99413.75;;;25.07;38.44
21728;BME280;11026;50.560;17.852;2022-11-15T10:19:55;99416.84;;;21.67;42.52
21728;BME280;11026;50.560;17.852;2022-11-15T10:22:41;99412.94;;;21.30;43.27
21728;BME280;11026;50.560;17.852;2022-11-15T10:25:17;99408.72;;;19.94;46.13
21728;BME280;11026;50.560;17.852;2022-11-15T10:28:16;99409.88;;;21.35;45.09
21728;BME280;11026;50.560;17.852;2022-11-15T10:30:47;99405.91;;;22.26;42.42
21728;BME280;11026;50.560;17.852;2022-11-15T10:33:34;99411.50;;;22.90;41.57
21728;BME280;11026;50.560;17.852;2022-11-15T10:36:30;99404.72;;;23.41;40.63
21728;BME280;11026;50.560;17.852;2022-11-15T10:39:04;99409.22;;;24.29;39.61
21728;BME280;11026;50.560;17.852;2022-11-15T10:41:40;99394.56;;;25.18;38.39
21728;BME280;11026;50.560;17.852;2022-11-15T10:47:43;99385.72;;;25.83;36.41
21728;BME280;11026;50.560;17.852;2022-11-15T10:50:25;99367.41;;;26.10;36.33
21728;BME280;11026;50.560;17.852;2022-11-15T10:52:55;99372.84;;;26.02;35.96
21728;BME280;11026;50.560;17.852;2022-11-15T10:55:29;99359.06;;;24.87;37.16
21728;BME280;11026;50.560;17.852;2022-11-15T10:58:30;99369.03;;;25.37;37.75
21728;BME280;11026;50.560;17.852;2022-11-15T11:04:09;99351.88;;;26.67;35.33
21728;BME280;11026;50.560;17.852;2022-11-15T11:06:55;99349.00;;;27.00;34.75
21728;BME280;11026;50.560;17.852;2022-11-15T11:12:05;99353.34;;;26.86;35.25
21728;BME280;11026;50.560;17.852;2022-11-15T11:14:35;99346.19;;;26.93;35.23
21728;BME280;11026;50.560;17.852;2022-11-15T11:17:16;99347.56;;;27.29;35.50
21728;BME280;11026;50.560;17.852;2022-11-15T11:25:34;99343.03;;;27.44;34.25
21728;BME280;11026;50.560;17.852;2022-11-15T11:30:55;99332.63;;;26.38;35.87
21728;BME280;11026;50.560;17.852;2022-11-15T11:36:40;99326.81;;;26.65;34.92
21728;BME280;11026;50.560;17.852;2022-11-15T11:47:14;99303.91;;;27.30;33.90
21728;BME280;11026;50.560;17.852;2022-11-15T11:49:50;99315.38;;;27.17;34.00
21728;BME280;11026;50.560;17.852;2022-11-15T11:52:25;99305.22;;;27.11;33.97
21728;BME280;11026;50.560;17.852;2022-11-15T11:58:04;99291.50;;;27.97;33.78
21728;BME280;11026;50.560;17.852;2022-11-15T12:00:38;99291.03;;;28.23;33.10
21728;BME280;11026;50.560;17.852;2022-11-15T12:11:18;99270.66;;;28.78;32.01
21728;BME280;11026;50.560;17.852;2022-11-15T12:13:50;99277.38;;;28.46;32.53
21728;BME280;11026;50.560;17.852;2022-11-15T12:16:31;99275.69;;;28.59;32.55
21728;BME280;11026;50.560;17.852;2022-11-15T12:19:03;99266.97;;;28.49;32.65
21728;BME280;11026;50.560;17.852;2022-11-15T12:24:51;99272.19;;;28.65;32.38
21728;BME280;11026;50.560;17.852;2022-11-15T12:29:54;99255.06;;;29.01;31.37
21728;BME280;11026;50.560;17.852;2022-11-15T12:32:40;99257.47;;;28.96;31.19
21728;BME280;11026;50.560;17.852;2022-11-15T12:35:35;99257.47;;;28.60;31.40
21728;BME280;11026;50.560;17.852;2022-11-15T12:38:04;99253.91;;;28.30;32.44
21728;BME280;11026;50.560;17.852;2022-11-15T12:40:37;99251.97;;;28.24;32.79
21728;BME280;11026;50.560;17.852;2022-11-15T12:43:10;99252.94;;;27.78;32.83
21728;BME280;11026;50.560;17.852;2022-11-15T12:45:51;99256.53;;;27.70;33.40
21728;BME280;11026;50.560;17.852;2022-11-15T12:59:00;99217.53;;;28.46;32.96
21728;BME280;11026;50.560;17.852;2022-11-15T13:06:58;99208.91;;;27.83;33.41
21728;BME280;11026;50.560;17.852;2022-11-15T13:12:03;99211.13;;;27.79;33.44
21728;BME280;11026;50.560;17.852;2022-11-15T13:17:31;99201.56;;;27.31;33.58
21728;BME280;11026;50.560;17.852;2022-11-15T13:22:44;99211.84;;;27.20;33.55
21728;BME280;11026;50.560;17.852;2022-11-15T13:25:46;99206.59;;;26.88;34.64
21728;BME280;11026;50.560;17.852;2022-11-15T13:30:56;99193.09;;;27.03;34.95
21728;BME280;11026;50.560;17.852;2022-11-15T13:33:32;99189.41;;;26.72;34.94
21728;BME280;11026;50.560;17.852;2022-11-15T13:36:23;99184.66;;;26.75;35.39
21728;BME280;11026;50.560;17.852;2022-11-15T13:38:59;99180.72;;;26.54;35.47
21728;BME280;11026;50.560;17.852;2022-11-15T13:41:31;99178.22;;;26.36;35.60
21728;BME280;11026;50.560;17.852;2022-11-15T13:43:59;99179.44;;;26.34;35.79
21728;BME280;11026;50.560;17.852;2022-11-15T13:46:28;99173.22;;;26.56;35.57
21728;BME280;11026;50.560;17.852;2022-11-15T13:49:05;99171.78;;;26.68;35.32
21728;BME280;11026;50.560;17.852;2022-11-15T13:51:49;99168.56;;;26.42;35.73
21728;BME280;11026;50.560;17.852;2022-11-15T13:54:30;99165.22;;;25.76;36.38
21728;BME280;11026;50.560;17.852;2022-11-15T13:57:08;99171.91;;;25.24;37.38
21728;BME280;11026;50.560;17.852;2022-11-15T13:59:47;99163.09;;;24.90;37.90
21728;BME280;11026;50.560;17.852;2022-11-15T14:02:26;99167.44;;;24.58;38.54
21728;BME280;11026;50.560;17.852;2022-11-15T14:04:57;99155.47;;;24.18;38.89
21728;BME280;11026;50.560;17.852;2022-11-15T14:07:27;99158.13;;;24.02;39.58
21728;BME280;11026;50.560;17.852;2022-11-15T14:09:55;99151.44;;;23.80;40.14
21728;BME280;11026;50.560;17.852;2022-11-15T14:12:32;99149.88;;;23.69;40.21
21728;BME280;11026;50.560;17.852;2022-11-15T14:15:17;99137.72;;;23.47;40.73
21728;BME280;11026;50.560;17.852;2022-11-15T14:17:47;99148.88;;;23.26;40.97
21728;BME280;11026;50.560;17.852;2022-11-15T14:20:35;99147.22;;;22.90;41.83
21728;BME280;11026;50.560;17.852;2022-11-15T14:23:19;99141.44;;;22.49;42.20
21728;BME280;11026;50.560;17.852;2022-11-15T14:25:58;99125.22;;;22.13;43.09
21728;BME280;11026;50.560;17.852;2022-11-15T14:28:33;99150.88;;;21.33;44.18
21728;BME280;11026;50.560;17.852;2022-11-15T14:31:11;99144.38;;;19.88;47.47
21728;BME280;11026;50.560;17.852;2022-11-15T14:33:45;99139.34;;;19.23;49.26
21728;BME280;11026;50.560;17.852;2022-11-15T14:36:29;99141.88;;;18.50;51.12
21728;BME280;11026;50.560;17.852;2022-11-15T14:39:07;99138.47;;;17.60;53.42
21728;BME280;11026;50.560;17.852;2022-11-15T14:41:36;99136.13;;;17.21;55.02
21728;BME280;11026;50.560;17.852;2022-11-15T14:44:20;99136.28;;;16.61;56.74
21728;BME280;11026;50.560;17.852;2022-11-15T14:46:53;99125.84;;;16.10;58.61
21728;BME280;11026;50.560;17.852;2022-11-15T14:49:22;99125.69;;;15.87;59.56
21728;BME280;11026;50.560;17.852;2022-11-15T14:51:49;99127.88;;;15.57;61.07
21728;BME280;11026;50.560;17.852;2022-11-15T14:54:17;99117.66;;;15.25;62.28
21728;BME280;11026;50.560;17.852;2022-11-15T14:57:06;99124.47;;;15.04;63.48
21728;BME280;11026;50.560;17.852;2022-11-15T14:59:35;99122.47;;;14.55;65.41
21728;BME280;11026;50.560;17.852;2022-11-15T15:02:14;99117.25;;;14.26;66.80
21728;BME280;11026;50.560;17.852;2022-11-15T15:04:42;99121.47;;;13.74;69.11
21728;BME280;11026;50.560;17.852;2022-11-15T15:07:10;99115.56;;;13.69;69.87
21728;BME280;11026;50.560;17.852;2022-11-15T15:09:40;99109.81;;;13.63;70.57
21728;BME280;11026;50.560;17.852;2022-11-15T15:12:26;99104.88;;;13.28;71.43
21728;BME280;11026;50.560;17.852;2022-11-15T15:14:54;99109.75;;;13.05;72.85
21728;BME280;11026;50.560;17.852;2022-11-15T15:17:24;99116.94;;;12.89;73.32
21728;BME280;11026;50.560;17.852;2022-11-15T15:19:51;99115.47;;;12.69;74.60
21728;BME280;11026;50.560;17.852;2022-11-15T15:22:27;99096.22;;;12.51;75.60
21728;BME280;11026;50.560;17.852;2022-11-15T15:24:56;99098.28;;;12.30;76.94
21728;BME280;11026;50.560;17.852;2022-11-15T15:27:23;99092.09;;;12.16;77.61
21728;BME280;11026;50.560;17.852;2022-11-15T15:29:50;99096.97;;;12.07;77.97
21728;BME280;11026;50.560;17.852;2022-11-15T15:32:17;99094.06;;;12.12;77.92
21728;BME280;11026;50.560;17.852;2022-11-15T15:34:46;99102.47;;;12.04;77.07